createdAt,value
2022-11-24T00:00:06.634Z,6.29
2022-11-24T00:00:38.359Z,6.27
2022-11-24T00:01:16.408Z,6.35
2022-11-24T00:01:48.307Z,6.25
2022-11-24T00:02:20.303Z,6.22
2022-11-24T00:02:52.902Z,6.19
2022-11-24T00:03:24.858Z,6.26
2022-11-24T00:04:05.406Z,6.24
2022-11-24T00:04:37.386Z,6.27
2022-11-24T00:05:09.250Z,6.23
2022-11-24T00:05:41.093Z,6.29
2022-11-24T00:06:15.755Z,6.34
2022-11-24T00:06:47.620Z,6.28
2022-11-24T00:07:19.564Z,6.28
2022-11-24T00:07:51.483Z,6.28
2022-11-24T00:08:23.343Z,6.28
2022-11-24T00:08:55.444Z,6.27
2022-11-24T00:09:27.328Z,6.23
2022-11-24T00:09:59.130Z,6.24
2022-11-24T00:10:30.972Z,6.27
2022-11-24T00:11:24.175Z,6.21
2022-11-24T00:11:56.333Z,6.25
2022-11-24T00:12:28.164Z,6.28
2022-11-24T00:13:00.010Z,6.28
2022-11-24T00:13:33.486Z,6.34
2022-11-24T00:14:06.547Z,6.35
2022-11-24T00:14:38.385Z,6.35
2022-11-24T00:15:10.411Z,6.39
2022-11-24T00:15:42.230Z,6.42
2022-11-24T00:16:19.723Z,6.41
2022-11-24T00:16:51.672Z,6.30
2022-11-24T00:17:24.300Z,6.18
2022-11-24T00:17:56.543Z,6.18
2022-11-24T00:18:28.365Z,6.14
2022-11-24T00:19:02.002Z,6.10
2022-11-24T00:19:33.957Z,6.10
2022-11-24T00:20:06.402Z,6.13
2022-11-24T00:20:38.252Z,6.20
2022-11-24T00:21:10.182Z,6.19
2022-11-24T00:21:42.535Z,6.22
2022-11-24T00:22:14.359Z,6.26
2022-11-24T00:22:46.503Z,6.28
2022-11-24T00:23:18.294Z,6.29
2022-11-24T00:23:51.234Z,6.26
2022-11-24T00:24:23.057Z,6.26
2022-11-24T00:24:54.875Z,6.25
2022-11-24T00:25:26.733Z,6.26
2022-11-24T00:26:16.442Z,6.30
2022-11-24T00:26:48.530Z,6.35
2022-11-24T00:27:20.420Z,6.40
2022-11-24T00:27:52.815Z,6.44
2022-11-24T00:28:24.804Z,6.46
2022-11-24T00:29:03.349Z,6.36
2022-11-24T00:29:35.165Z,6.27
2022-11-24T00:30:07.519Z,6.20
2022-11-24T00:30:39.456Z,6.24
2022-11-24T00:31:20.963Z,6.34
2022-11-24T00:31:52.927Z,6.36
2022-11-24T00:32:24.810Z,6.32
2022-11-24T00:32:56.914Z,6.34
2022-11-24T00:33:28.782Z,6.33
2022-11-24T00:34:02.695Z,6.38
2022-11-24T00:34:34.901Z,6.39
2022-11-24T00:35:07.729Z,6.42
2022-11-24T00:35:39.639Z,6.47
2022-11-24T00:36:11.547Z,6.39
2022-11-24T00:36:43.650Z,6.31
2022-11-24T00:37:15.503Z,6.26
2022-11-24T00:37:47.426Z,6.31
2022-11-24T00:38:19.572Z,6.26
2022-11-24T00:38:55.707Z,6.29
2022-11-24T00:39:27.559Z,6.35
2022-11-24T00:39:59.369Z,6.39
2022-11-24T00:40:34.993Z,6.37
2022-11-24T00:41:07.352Z,6.31
2022-11-24T00:41:39.592Z,6.33
2022-11-24T00:42:11.436Z,6.36
2022-11-24T00:42:43.238Z,6.32
2022-11-24T00:43:15.187Z,6.31
2022-11-24T00:43:47.316Z,6.34
2022-11-24T00:44:19.134Z,6.38
2022-11-24T00:44:50.952Z,6.42
2022-11-24T00:45:22.768Z,6.43
2022-11-24T00:45:54.748Z,6.42
2022-11-24T00:46:27.976Z,6.44
2022-11-24T00:47:00.074Z,6.35
2022-11-24T00:47:33.001Z,6.28
2022-11-24T00:48:04.936Z,6.32
2022-11-24T00:48:36.869Z,6.36
2022-11-24T00:49:09.407Z,6.37
2022-11-24T00:49:41.248Z,6.34
2022-11-24T00:50:13.129Z,6.26
2022-11-24T00:50:44.941Z,6.31
2022-11-24T00:51:18.557Z,6.36
2022-11-24T00:51:50.466Z,6.27
2022-11-24T00:52:22.279Z,6.21
2022-11-24T00:52:54.098Z,6.21
2022-11-24T00:53:26.388Z,6.24
2022-11-24T00:53:59.497Z,6.32
2022-11-24T00:54:31.915Z,6.31
2022-11-24T00:55:04.189Z,6.33
2022-11-24T00:55:36.026Z,6.39
2022-11-24T00:56:08.746Z,6.43
2022-11-24T00:56:40.631Z,6.43
2022-11-24T00:57:12.510Z,6.39
2022-11-24T00:57:44.324Z,6.43
2022-11-24T00:58:16.156Z,6.44
2022-11-24T00:58:47.978Z,6.42
2022-11-24T00:59:19.835Z,6.36
2022-11-24T00:59:51.947Z,6.41
2022-11-24T01:00:23.806Z,6.33
2022-11-24T01:01:01.381Z,6.36
2022-11-24T01:01:33.369Z,6.36
2022-11-24T01:02:05.293Z,6.38
2022-11-24T01:02:37.353Z,6.33
2022-11-24T01:03:09.504Z,6.36
2022-11-24T01:03:42.462Z,6.43
2022-11-24T01:04:14.996Z,6.39
2022-11-24T01:04:46.796Z,6.40
2022-11-24T01:05:19.271Z,6.39
2022-11-24T01:05:51.145Z,6.40
2022-11-24T01:06:25.199Z,6.45
2022-11-24T01:06:57.072Z,6.44
2022-11-24T01:07:28.922Z,6.43
2022-11-24T01:08:00.756Z,6.42
2022-11-24T01:08:33.316Z,6.42
2022-11-24T01:09:05.295Z,6.41
2022-11-24T01:09:37.818Z,6.43
2022-11-24T01:10:09.917Z,6.41
2022-11-24T01:10:42.239Z,6.33
2022-11-24T01:11:16.319Z,6.32
2022-11-24T01:12:04.016Z,6.30
2022-11-24T01:12:35.927Z,6.38
2022-11-24T01:13:07.794Z,6.35
2022-11-24T01:13:41.077Z,6.32
2022-11-24T01:14:12.892Z,6.32
2022-11-24T01:14:44.753Z,6.26
2022-11-24T01:15:16.659Z,6.21
2022-11-24T01:15:48.848Z,6.22
2022-11-24T01:16:31.521Z,6.15
2022-11-24T01:17:03.685Z,6.17
2022-11-24T01:17:35.543Z,6.26
2022-11-24T01:18:07.397Z,6.28
2022-11-24T01:18:39.357Z,6.22
2022-11-24T01:19:11.177Z,6.23
2022-11-24T01:19:43.033Z,6.20
2022-11-24T01:20:15.172Z,6.21
2022-11-24T01:20:46.989Z,6.25
2022-11-24T01:21:20.206Z,6.26
2022-11-24T01:21:52.396Z,6.19
2022-11-24T01:22:26.443Z,6.13
2022-11-24T01:22:58.283Z,6.22
2022-11-24T01:23:30.216Z,6.29
2022-11-24T01:24:02.455Z,6.22
2022-11-24T01:24:34.407Z,6.22
2022-11-24T01:25:07.218Z,6.17
2022-11-24T01:25:40.096Z,6.24
2022-11-24T01:26:15.007Z,6.31
2022-11-24T01:26:47.190Z,6.35
2022-11-24T01:27:19.031Z,6.36
2022-11-24T01:27:50.932Z,6.29
2022-11-24T01:28:22.791Z,6.32
2022-11-24T01:28:56.500Z,6.32
2022-11-24T01:29:28.483Z,6.31
2022-11-24T01:30:00.468Z,6.28
2022-11-24T01:30:32.695Z,6.27
2022-11-24T01:31:07.171Z,6.29
2022-11-24T01:31:39.406Z,6.33
2022-11-24T01:32:11.545Z,6.36
2022-11-24T01:32:43.381Z,6.40
2022-11-24T01:33:15.235Z,6.45
2022-11-24T01:33:47.075Z,6.26
2022-11-24T01:34:19.185Z,6.27
2022-11-24T01:34:51.054Z,6.27
2022-11-24T01:35:22.896Z,6.31
2022-11-24T01:35:54.723Z,6.28
2022-11-24T01:36:26.666Z,6.33
2022-11-24T01:36:58.464Z,6.35
2022-11-24T01:37:30.671Z,6.36
2022-11-24T01:38:02.488Z,6.39
2022-11-24T01:38:34.314Z,6.42
2022-11-24T01:39:06.167Z,6.43
2022-11-24T01:39:38.000Z,6.46
2022-11-24T01:40:10.665Z,6.51
2022-11-24T01:40:42.564Z,6.47
2022-11-24T01:41:17.960Z,6.41
2022-11-24T01:41:49.851Z,6.41
2022-11-24T01:42:21.730Z,6.32
2022-11-24T01:42:54.059Z,6.34
2022-11-24T01:43:25.918Z,6.33
2022-11-24T01:43:57.854Z,6.28
2022-11-24T01:44:31.288Z,6.36
2022-11-24T01:45:40.613Z,6.35
2022-11-24T01:46:31.085Z,6.39
2022-11-24T01:47:13.554Z,6.38
2022-11-24T01:47:45.448Z,6.41
2022-11-24T01:48:35.065Z,6.37
2022-11-24T01:49:33.860Z,6.34
2022-11-24T01:50:13.335Z,6.37
2022-11-24T01:50:46.426Z,6.34
2022-11-24T01:51:23.812Z,6.26
2022-11-24T01:52:01.417Z,6.26
2022-11-24T01:52:51.553Z,6.25
2022-11-24T01:53:24.506Z,6.27
2022-11-24T01:54:20.261Z,6.32
2022-11-24T01:54:59.602Z,6.39
2022-11-24T01:55:36.514Z,6.38
2022-11-24T01:56:09.438Z,6.36
2022-11-24T01:56:45.806Z,6.38
2022-11-24T01:57:23.705Z,6.34
2022-11-24T01:58:05.209Z,6.28
2022-11-24T01:58:39.867Z,6.29
2022-11-24T01:59:14.465Z,6.22
2022-11-24T01:59:48.474Z,6.24
2022-11-24T02:00:21.730Z,6.33
2022-11-24T02:00:54.334Z,6.28
2022-11-24T02:01:26.390Z,6.31
2022-11-24T02:01:58.478Z,6.36
2022-11-24T02:02:30.715Z,6.34
2022-11-24T02:03:02.754Z,6.38
2022-11-24T02:03:38.263Z,6.38
2022-11-24T02:04:17.729Z,6.45
2022-11-24T02:04:51.249Z,6.43
2022-11-24T02:05:26.190Z,6.38
2022-11-24T02:06:08.080Z,6.42
2022-11-24T02:06:42.710Z,6.41
2022-11-24T02:07:15.065Z,6.42
2022-11-24T02:07:48.020Z,6.50
2022-11-24T02:08:49.155Z,6.46
2022-11-24T02:09:26.214Z,6.39
2022-11-24T02:10:03.960Z,6.34
2022-11-24T02:10:36.966Z,6.35
2022-11-24T02:11:08.891Z,6.33
2022-11-24T02:11:41.733Z,6.35
2022-11-24T02:12:13.663Z,6.37
2022-11-24T02:12:47.713Z,6.32
2022-11-24T02:13:19.936Z,6.37
2022-11-24T02:13:54.248Z,6.39
2022-11-24T02:14:27.523Z,6.39
2022-11-24T02:14:59.758Z,6.42
2022-11-24T02:15:32.457Z,6.46
2022-11-24T02:16:07.657Z,6.38
2022-11-24T02:16:41.609Z,6.35
2022-11-24T02:17:13.479Z,6.41
2022-11-24T02:17:45.471Z,6.41
2022-11-24T02:18:17.304Z,6.40
2022-11-24T02:18:49.475Z,6.41
2022-11-24T02:19:27.059Z,6.39
2022-11-24T02:20:01.910Z,6.44
2022-11-24T02:20:34.197Z,6.42
2022-11-24T02:21:07.379Z,6.33
2022-11-24T02:21:39.250Z,6.31
2022-11-24T02:22:31.239Z,6.21
2022-11-24T02:23:31.740Z,6.28
2022-11-24T02:24:30.319Z,6.19
2022-11-24T02:25:10.030Z,6.30
2022-11-24T02:25:50.118Z,6.29
2022-11-24T02:26:30.982Z,6.28
2022-11-24T02:27:03.785Z,6.28
2022-11-24T02:27:36.357Z,6.22
2022-11-24T02:28:13.632Z,6.24
2022-11-24T02:28:46.214Z,6.31
2022-11-24T02:29:19.859Z,6.26
2022-11-24T02:29:52.147Z,6.31
2022-11-24T02:30:24.604Z,6.36
2022-11-24T02:30:58.577Z,6.31
2022-11-24T02:31:30.717Z,6.22
2022-11-24T02:32:06.782Z,6.25
2022-11-24T02:32:41.394Z,6.21
2022-11-24T02:33:13.828Z,6.22
2022-11-24T02:33:45.765Z,6.31
2022-11-24T02:34:17.635Z,6.27
2022-11-24T02:34:49.479Z,6.29
2022-11-24T02:35:21.502Z,6.32
2022-11-24T02:35:53.933Z,6.35
2022-11-24T02:36:25.839Z,6.38
2022-11-24T02:36:57.696Z,6.38
2022-11-24T02:37:29.606Z,6.35
2022-11-24T02:38:01.431Z,6.39
2022-11-24T02:38:35.401Z,6.43
2022-11-24T02:39:15.101Z,6.42
2022-11-24T02:39:46.914Z,6.42
2022-11-24T02:40:25.105Z,6.40
2022-11-24T02:41:00.551Z,6.36
2022-11-24T02:41:32.442Z,6.37
2022-11-24T02:42:08.997Z,6.37
2022-11-24T02:42:44.981Z,6.32
2022-11-24T02:43:23.349Z,6.37
2022-11-24T02:43:58.408Z,6.37
2022-11-24T02:44:37.961Z,6.35
2022-11-24T02:45:11.971Z,6.33
2022-11-24T02:45:43.850Z,6.35
2022-11-24T02:46:16.109Z,6.37
2022-11-24T02:46:48.006Z,6.35
2022-11-24T02:47:19.846Z,6.39
2022-11-24T02:47:51.711Z,6.41
2022-11-24T02:48:23.911Z,6.35
2022-11-24T02:48:55.788Z,6.28
2022-11-24T02:49:27.591Z,6.28
2022-11-24T02:49:59.431Z,6.31
2022-11-24T02:50:31.258Z,6.30
2022-11-24T02:51:03.687Z,6.31
2022-11-24T02:51:35.820Z,6.31
2022-11-24T02:52:08.458Z,6.38
2022-11-24T02:52:40.285Z,6.41
2022-11-24T02:53:12.176Z,6.44
2022-11-24T02:53:45.006Z,6.46
2022-11-24T02:54:16.820Z,6.49
2022-11-24T02:54:48.699Z,6.43
2022-11-24T02:55:20.583Z,6.43
2022-11-24T02:55:53.159Z,6.38
2022-11-24T02:56:26.778Z,6.44
2022-11-24T02:56:59.348Z,6.43
2022-11-24T02:57:31.389Z,6.43
2022-11-24T02:58:03.280Z,6.43
2022-11-24T02:58:35.234Z,6.46
2022-11-24T02:59:07.070Z,6.46
2022-11-24T02:59:38.980Z,6.44
2022-11-24T03:00:11.681Z,6.42
2022-11-24T03:00:43.526Z,6.46
2022-11-24T03:01:15.460Z,6.36
2022-11-24T03:01:47.437Z,6.38
2022-11-24T03:02:19.654Z,6.44
2022-11-24T03:02:51.645Z,6.43
2022-11-24T03:03:24.202Z,6.32
2022-11-24T03:03:56.037Z,6.29
2022-11-24T03:04:27.837Z,6.23
2022-11-24T03:04:59.698Z,6.20
2022-11-24T03:05:31.512Z,6.25
2022-11-24T03:06:03.374Z,6.26
2022-11-24T03:06:35.206Z,6.24
2022-11-24T03:07:07.273Z,6.27
2022-11-24T03:07:39.535Z,6.28
2022-11-24T03:08:12.960Z,6.33
2022-11-24T03:08:44.852Z,6.31
2022-11-24T03:09:16.675Z,6.29
2022-11-24T03:09:48.485Z,6.29
2022-11-24T03:10:20.496Z,6.37
2022-11-24T03:10:52.381Z,6.39
2022-11-24T03:11:24.256Z,6.35
2022-11-24T03:11:56.145Z,6.32
2022-11-24T03:12:28.026Z,6.31
2022-11-24T03:13:00.178Z,6.31
2022-11-24T03:13:31.996Z,6.26
2022-11-24T03:14:04.861Z,6.31
2022-11-24T03:14:36.943Z,6.35
2022-11-24T03:15:09.333Z,6.34
2022-11-24T03:15:41.338Z,6.41
2022-11-24T03:16:13.225Z,6.37
2022-11-24T03:16:45.075Z,6.37
2022-11-24T03:17:16.976Z,6.43
2022-11-24T03:17:48.786Z,6.41
2022-11-24T03:18:20.911Z,6.43
2022-11-24T03:18:53.486Z,6.48
2022-11-24T03:19:25.334Z,6.44
2022-11-24T03:20:03.006Z,6.29
2022-11-24T03:20:36.314Z,6.28
2022-11-24T03:21:08.208Z,6.25
2022-11-24T03:21:40.050Z,6.21
2022-11-24T03:22:13.484Z,6.24
2022-11-24T03:22:45.321Z,6.29
2022-11-24T03:23:17.188Z,6.30
2022-11-24T03:23:49.574Z,6.31
2022-11-24T03:24:21.520Z,6.33
2022-11-24T03:24:53.407Z,6.34
2022-11-24T03:25:25.360Z,6.37
2022-11-24T03:26:08.038Z,6.41
2022-11-24T03:26:39.960Z,6.45
2022-11-24T03:27:11.787Z,6.47
2022-11-24T03:27:44.038Z,6.46
2022-11-24T03:28:16.091Z,6.38
2022-11-24T03:28:48.027Z,6.36
2022-11-24T03:29:20.194Z,6.41
2022-11-24T03:29:52.054Z,6.42
2022-11-24T03:30:23.977Z,6.43
2022-11-24T03:30:55.829Z,6.34
2022-11-24T03:31:27.961Z,6.28
2022-11-24T03:32:00.275Z,6.25
2022-11-24T03:32:32.081Z,6.32
2022-11-24T03:33:05.093Z,6.39
2022-11-24T03:33:37.763Z,6.38
2022-11-24T03:34:09.983Z,6.36
2022-11-24T03:34:42.102Z,6.38
2022-11-24T03:35:13.948Z,6.40
2022-11-24T03:35:46.071Z,6.47
2022-11-24T03:36:18.706Z,6.51
2022-11-24T03:36:50.790Z,6.51
2022-11-24T03:37:22.662Z,6.47
2022-11-24T03:37:54.502Z,6.41
2022-11-24T03:38:26.327Z,6.43
2022-11-24T03:38:58.171Z,6.39
2022-11-24T03:39:30.063Z,6.36
2022-11-24T03:40:02.176Z,6.45
2022-11-24T03:40:34.059Z,6.49
2022-11-24T03:41:05.943Z,6.48
2022-11-24T03:41:37.842Z,6.42
2022-11-24T03:42:09.761Z,6.39
2022-11-24T03:42:41.608Z,6.42
2022-11-24T03:43:13.438Z,6.45
2022-11-24T03:43:45.250Z,6.39
2022-11-24T03:44:17.996Z,6.43
2022-11-24T03:44:49.968Z,6.42
2022-11-24T03:45:45.047Z,6.34
2022-11-24T03:46:14.443Z,6.39
2022-11-24T03:46:46.404Z,6.36
2022-11-24T03:47:18.257Z,6.28
2022-11-24T03:47:51.800Z,6.32
2022-11-24T03:48:23.609Z,6.30
2022-11-24T03:48:55.433Z,6.38
2022-11-24T03:49:27.315Z,6.39
2022-11-24T03:49:59.172Z,6.42
2022-11-24T03:50:31.287Z,6.35
2022-11-24T03:51:03.353Z,6.34
2022-11-24T03:51:35.197Z,6.35
2022-11-24T03:52:08.360Z,6.34
2022-11-24T03:52:40.350Z,6.34
2022-11-24T03:53:12.257Z,6.36
2022-11-24T03:53:44.083Z,6.37
2022-11-24T03:54:15.960Z,6.37
2022-11-24T03:54:47.860Z,6.41
2022-11-24T03:55:19.687Z,6.37
2022-11-24T03:55:52.084Z,6.29
2022-11-24T03:56:23.899Z,6.34
2022-11-24T03:56:56.017Z,6.39
2022-11-24T03:57:27.814Z,6.47
2022-11-24T03:57:59.693Z,6.44
2022-11-24T03:58:31.567Z,6.37
2022-11-24T03:59:03.499Z,6.21
2022-11-24T03:59:35.328Z,6.21
2022-11-24T04:00:08.072Z,6.28
2022-11-24T04:00:40.465Z,6.35
2022-11-24T04:01:12.348Z,6.29
2022-11-24T04:01:44.237Z,6.34
2022-11-24T04:02:16.726Z,6.35
2022-11-24T04:02:48.781Z,6.41
2022-11-24T04:03:21.166Z,6.39
2022-11-24T04:03:53.039Z,6.34
2022-11-24T04:04:24.882Z,6.28
2022-11-24T04:04:56.802Z,6.19
2022-11-24T04:05:28.675Z,6.18
2022-11-24T04:06:00.931Z,6.26
2022-11-24T04:06:32.787Z,6.33
2022-11-24T04:07:04.595Z,6.30
2022-11-24T04:07:36.520Z,6.19
2022-11-24T04:08:08.751Z,6.24
2022-11-24T04:08:40.593Z,6.21
2022-11-24T04:09:12.425Z,6.20
2022-11-24T04:09:45.338Z,6.20
2022-11-24T04:10:17.227Z,6.19
2022-11-24T04:10:51.303Z,6.25
2022-11-24T04:11:42.267Z,6.30
2022-11-24T04:12:32.678Z,6.28
2022-11-24T04:13:10.860Z,6.20
2022-11-24T04:13:42.724Z,6.28
2022-11-24T04:14:14.725Z,6.23
2022-11-24T04:14:46.605Z,6.28
2022-11-24T04:15:19.661Z,6.31
2022-11-24T04:15:52.016Z,6.29
2022-11-24T04:16:24.268Z,6.25
2022-11-24T04:16:56.175Z,6.26
2022-11-24T04:17:28.456Z,6.19
2022-11-24T04:18:00.276Z,6.29
2022-11-24T04:18:32.238Z,6.32
2022-11-24T04:19:04.107Z,6.28
2022-11-24T04:19:35.929Z,6.17
2022-11-24T04:20:08.734Z,6.17
2022-11-24T04:20:41.412Z,6.20
2022-11-24T04:21:13.271Z,6.22
2022-11-24T04:21:45.418Z,6.19
2022-11-24T04:22:17.906Z,6.23
2022-11-24T04:22:51.842Z,6.26
2022-11-24T04:23:23.685Z,6.27
2022-11-24T04:23:55.522Z,6.11
2022-11-24T04:24:27.367Z,6.02
2022-11-24T04:24:59.175Z,6.04
2022-11-24T04:25:31.151Z,6.12
2022-11-24T04:26:02.971Z,6.09
2022-11-24T04:26:34.940Z,6.05
2022-11-24T04:27:07.012Z,5.98
2022-11-24T04:27:39.330Z,6.02
2022-11-24T04:28:11.221Z,6.04
2022-11-24T04:28:43.041Z,6.09
2022-11-24T04:29:14.874Z,6.06
2022-11-24T04:29:46.742Z,6.05
2022-11-24T04:30:19.519Z,6.08
2022-11-24T04:30:51.464Z,6.14
2022-11-24T04:31:23.396Z,6.06
2022-11-24T04:31:55.270Z,6.09
2022-11-24T04:32:27.915Z,6.11
2022-11-24T04:32:59.852Z,6.13
2022-11-24T04:33:31.935Z,6.21
2022-11-24T04:34:04.048Z,6.14
2022-11-24T04:34:36.670Z,6.12
2022-11-24T04:35:08.829Z,6.06
2022-11-24T04:35:40.752Z,5.99
2022-11-24T04:36:12.633Z,5.99
2022-11-24T04:36:44.500Z,6.04
2022-11-24T04:37:16.445Z,6.13
2022-11-24T04:37:48.610Z,6.16
2022-11-24T04:39:24.540Z,6.07
2022-11-24T04:39:25.984Z,6.20
2022-11-24T04:39:58.029Z,6.14
2022-11-24T04:40:30.226Z,6.02
2022-11-24T04:41:03.417Z,6.01
2022-11-24T04:41:35.264Z,5.95
2022-11-24T04:42:07.100Z,5.99
2022-11-24T04:42:38.955Z,5.98
2022-11-24T04:43:12.083Z,6.01
2022-11-24T04:43:43.937Z,6.01
2022-11-24T04:44:15.832Z,6.11
2022-11-24T04:44:47.726Z,6.13
2022-11-24T04:45:19.545Z,5.99
2022-11-24T04:45:51.412Z,5.97
2022-11-24T04:46:23.257Z,6.01
2022-11-24T04:46:55.215Z,5.89
2022-11-24T04:47:27.758Z,5.92
2022-11-24T04:47:59.612Z,5.83
2022-11-24T04:48:31.753Z,5.80
2022-11-24T04:49:03.781Z,5.93
2022-11-24T04:49:35.607Z,5.94
2022-11-24T04:50:09.093Z,5.99
2022-11-24T04:50:41.020Z,5.98
2022-11-24T04:51:15.139Z,6.04
2022-11-24T04:51:47.168Z,6.05
2022-11-24T04:52:20.318Z,6.08
2022-11-24T04:52:52.639Z,6.07
2022-11-24T04:53:24.450Z,5.97
2022-11-24T04:53:56.597Z,5.86
2022-11-24T04:54:28.422Z,5.79
2022-11-24T04:55:00.315Z,5.89
2022-11-24T04:55:32.158Z,5.81
2022-11-24T04:56:07.291Z,5.86
2022-11-24T04:56:40.208Z,5.86
2022-11-24T04:57:32.281Z,5.91
2022-11-24T04:58:04.127Z,5.82
2022-11-24T04:58:36.222Z,5.86
2022-11-24T04:59:11.878Z,5.87
2022-11-24T04:59:44.190Z,5.90
2022-11-24T05:00:16.832Z,5.85
2022-11-24T05:00:48.916Z,5.88
2022-11-24T05:01:20.785Z,5.93
2022-11-24T05:01:52.725Z,5.94
2022-11-24T05:02:24.665Z,5.98
2022-11-24T05:02:56.768Z,5.93
2022-11-24T05:03:28.598Z,6.00
2022-11-24T05:04:00.459Z,5.95
2022-11-24T05:04:33.001Z,5.96
2022-11-24T05:05:06.612Z,5.97
2022-11-24T05:05:38.469Z,5.96
2022-11-24T05:06:10.298Z,5.92
2022-11-24T05:06:42.299Z,5.94
2022-11-24T05:07:18.882Z,5.93
2022-11-24T05:07:51.323Z,5.78
2022-11-24T05:08:23.209Z,5.80
2022-11-24T05:08:55.082Z,5.84
2022-11-24T05:09:47.910Z,5.83
2022-11-24T05:10:37.406Z,5.83
2022-11-24T05:11:09.272Z,5.96
2022-11-24T05:11:41.101Z,6.00
2022-11-24T05:12:12.900Z,5.97
2022-11-24T05:12:49.951Z,5.98
2022-11-24T05:13:23.147Z,5.95
2022-11-24T05:13:55.052Z,5.89
2022-11-24T05:14:28.358Z,5.94
2022-11-24T05:15:01.914Z,5.95
2022-11-24T05:15:34.194Z,5.99
2022-11-24T05:16:06.360Z,6.03
2022-11-24T05:16:38.379Z,6.01
2022-11-24T05:17:10.279Z,5.92
2022-11-24T05:17:42.113Z,5.95
2022-11-24T05:18:17.474Z,6.00
2022-11-24T05:18:49.390Z,5.94
2022-11-24T05:19:21.191Z,5.92
2022-11-24T05:19:53.031Z,5.91
2022-11-24T05:20:25.567Z,5.93
2022-11-24T05:20:58.780Z,6.00
2022-11-24T05:21:30.589Z,6.07
2022-11-24T05:22:02.410Z,6.13
2022-11-24T05:22:34.512Z,6.08
2022-11-24T05:23:08.345Z,6.00
2022-11-24T05:23:40.231Z,5.96
2022-11-24T05:24:12.100Z,5.95
2022-11-24T05:24:43.897Z,6.02
2022-11-24T05:25:15.837Z,6.08
2022-11-24T05:25:48.090Z,6.03
2022-11-24T05:26:20.503Z,6.09
2022-11-24T05:26:52.365Z,6.09
2022-11-24T05:27:24.361Z,6.12
2022-11-24T05:28:02.811Z,6.09
2022-11-24T05:28:34.700Z,5.94
2022-11-24T05:29:06.590Z,5.95
2022-11-24T05:29:38.472Z,6.00
2022-11-24T05:30:11.537Z,5.96
2022-11-24T05:30:44.216Z,5.95
2022-11-24T05:31:16.127Z,5.99
2022-11-24T05:31:48.430Z,5.98
2022-11-24T05:32:20.327Z,6.05
2022-11-24T05:32:52.187Z,6.04
2022-11-24T05:33:24.149Z,5.99
2022-11-24T05:33:56.046Z,5.95
2022-11-24T05:34:28.372Z,5.94
2022-11-24T05:35:02.200Z,5.95
2022-11-24T05:35:35.559Z,5.80
2022-11-24T05:36:07.815Z,5.75
2022-11-24T05:36:54.739Z,5.79
2022-11-24T05:37:28.420Z,5.89
2022-11-24T05:38:00.214Z,5.98
2022-11-24T05:38:32.944Z,5.92
2022-11-24T05:39:04.822Z,5.83
2022-11-24T05:39:36.981Z,5.82
2022-11-24T05:40:09.179Z,5.79
2022-11-24T05:40:41.592Z,5.83
2022-11-24T05:41:13.378Z,5.78
2022-11-24T05:41:45.531Z,5.76
2022-11-24T05:42:35.895Z,5.81
2022-11-24T05:43:15.542Z,5.90
2022-11-24T05:43:47.368Z,5.96
2022-11-24T05:44:19.211Z,5.96
2022-11-24T05:44:51.798Z,5.84
2022-11-24T05:45:23.825Z,5.90
2022-11-24T05:45:59.623Z,5.84
2022-11-24T05:46:31.491Z,5.85
2022-11-24T05:47:03.430Z,5.88
2022-11-24T05:47:36.003Z,5.88
2022-11-24T05:48:10.669Z,5.84
2022-11-24T05:48:42.527Z,5.67
2022-11-24T05:49:14.414Z,5.72
2022-11-24T05:49:46.381Z,5.75
2022-11-24T05:50:20.695Z,5.80
2022-11-24T05:50:58.847Z,5.84
2022-11-24T05:51:30.894Z,5.96
2022-11-24T05:52:02.749Z,5.96
2022-11-24T05:52:35.146Z,5.94
2022-11-24T05:53:10.700Z,5.88
2022-11-24T05:53:42.828Z,5.81
2022-11-24T05:54:14.788Z,5.89
2022-11-24T05:54:46.613Z,5.80
2022-11-24T05:55:19.616Z,5.69
2022-11-24T05:55:51.537Z,5.71
2022-11-24T05:56:23.434Z,5.75
2022-11-24T05:56:56.396Z,5.74
2022-11-24T05:57:28.457Z,5.75
2022-11-24T05:58:02.371Z,5.73
2022-11-24T05:58:34.247Z,5.83
2022-11-24T05:59:09.799Z,5.86
2022-11-24T05:59:42.033Z,5.88
2022-11-24T06:00:15.124Z,5.82
2022-11-24T06:00:47.674Z,5.87
2022-11-24T06:01:19.850Z,5.79
2022-11-24T06:01:51.802Z,5.76
2022-11-24T06:02:23.783Z,5.69
2022-11-24T06:02:58.081Z,5.71
2022-11-24T06:03:29.954Z,5.79
2022-11-24T06:04:01.843Z,5.90
2022-11-24T06:04:33.957Z,5.99
2022-11-24T06:05:06.169Z,5.99
2022-11-24T06:05:38.315Z,5.90
2022-11-24T06:06:10.852Z,5.92
2022-11-24T06:06:42.883Z,5.83
2022-11-24T06:07:15.105Z,5.94
2022-11-24T06:07:47.087Z,5.97
2022-11-24T06:08:18.960Z,5.94
2022-11-24T06:08:50.827Z,5.96
2022-11-24T06:09:22.823Z,5.86
2022-11-24T06:09:54.672Z,5.75
2022-11-24T06:10:26.902Z,5.93
2022-11-24T06:11:20.515Z,5.95
2022-11-24T06:11:52.682Z,5.95
2022-11-24T06:12:24.518Z,5.85
2022-11-24T06:12:56.592Z,5.95
2022-11-24T06:13:28.489Z,5.97
2022-11-24T06:14:00.528Z,5.95
2022-11-24T06:14:32.946Z,5.96
2022-11-24T06:15:05.431Z,5.99
2022-11-24T06:15:37.811Z,5.96
2022-11-24T06:16:10.760Z,5.99
2022-11-24T06:16:42.723Z,6.00
2022-11-24T06:17:14.893Z,5.94
2022-11-24T06:17:53.789Z,5.98
2022-11-24T06:18:25.616Z,5.93
2022-11-24T06:18:57.472Z,5.91
2022-11-24T06:19:29.352Z,5.92
2022-11-24T06:20:01.186Z,5.79
2022-11-24T06:20:33.298Z,5.80
2022-11-24T06:21:11.222Z,5.90
2022-11-24T06:21:43.549Z,5.95
2022-11-24T06:22:16.014Z,5.88
2022-11-24T06:22:48.397Z,5.86
2022-11-24T06:23:20.215Z,5.91
2022-11-24T06:23:52.083Z,5.92
2022-11-24T06:24:24.079Z,5.94
2022-11-24T06:24:55.894Z,5.93
2022-11-24T06:25:29.224Z,5.92
2022-11-24T06:26:01.709Z,5.95
2022-11-24T06:26:33.699Z,5.97
2022-11-24T06:27:05.533Z,6.00
2022-11-24T06:27:37.705Z,5.99
2022-11-24T06:28:09.526Z,5.97
2022-11-24T06:28:41.683Z,6.00
2022-11-24T06:29:13.580Z,6.00
2022-11-24T06:29:46.295Z,6.00
2022-11-24T06:30:18.239Z,5.96
2022-11-24T06:30:50.078Z,5.89
2022-11-24T06:31:21.947Z,5.92
2022-11-24T06:31:53.863Z,5.92
2022-11-24T06:32:25.729Z,5.89
2022-11-24T06:32:57.896Z,5.95
2022-11-24T06:33:34.565Z,5.97
2022-11-24T06:34:07.895Z,6.02
2022-11-24T06:34:39.850Z,5.98
2022-11-24T06:35:13.235Z,5.97
2022-11-24T06:35:45.158Z,5.97
2022-11-24T06:36:17.033Z,6.01
2022-11-24T06:36:48.904Z,5.97
2022-11-24T06:37:20.802Z,5.95
2022-11-24T06:37:52.719Z,5.99
2022-11-24T06:38:24.864Z,6.02
2022-11-24T06:38:56.707Z,5.95
2022-11-24T06:39:28.576Z,6.03
2022-11-24T06:40:00.467Z,5.99
2022-11-24T06:40:32.251Z,5.94
2022-11-24T06:41:07.740Z,5.93
2022-11-24T06:41:39.595Z,5.92
2022-11-24T06:42:18.607Z,5.88
2022-11-24T06:42:51.716Z,5.81
2022-11-24T06:43:23.568Z,5.77
2022-11-24T06:43:55.699Z,5.80
2022-11-24T06:44:30.981Z,5.78
2022-11-24T06:45:08.571Z,5.85
2022-11-24T06:45:41.135Z,5.85
2022-11-24T06:46:13.435Z,5.86
2022-11-24T06:46:45.447Z,5.88
2022-11-24T06:47:17.247Z,5.85
2022-11-24T06:47:49.135Z,5.92
2022-11-24T06:48:20.990Z,5.97
2022-11-24T06:48:53.040Z,6.02
2022-11-24T06:49:25.240Z,6.01
2022-11-24T06:49:57.161Z,6.00
2022-11-24T06:50:33.402Z,5.84
2022-11-24T06:51:08.104Z,5.77
2022-11-24T06:51:40.145Z,5.88
2022-11-24T06:52:12.076Z,5.83
2022-11-24T06:52:43.959Z,5.90
2022-11-24T06:53:15.938Z,5.92
2022-11-24T06:53:47.805Z,5.98
2022-11-24T06:54:21.214Z,6.00
2022-11-24T06:54:53.732Z,5.97
2022-11-24T06:55:25.605Z,5.90
2022-11-24T06:56:01.974Z,5.89
2022-11-24T06:56:34.338Z,5.93
2022-11-24T06:57:06.695Z,6.00
2022-11-24T06:57:39.075Z,5.96
2022-11-24T06:58:10.940Z,6.02
2022-11-24T06:58:45.200Z,6.07
2022-11-24T06:59:20.615Z,6.08
2022-11-24T06:59:52.443Z,6.14
2022-11-24T07:00:25.029Z,6.13
2022-11-24T07:00:57.155Z,6.17
2022-11-24T07:01:30.281Z,6.14
2022-11-24T07:02:02.468Z,6.10
2022-11-24T07:02:34.701Z,6.04
2022-11-24T07:03:06.699Z,6.01
2022-11-24T07:03:38.546Z,6.07
2022-11-24T07:04:11.395Z,6.08
2022-11-24T07:04:43.271Z,6.08
2022-11-24T07:05:15.083Z,6.07
2022-11-24T07:05:47.350Z,5.93
2022-11-24T07:06:20.649Z,5.95
2022-11-24T07:06:52.489Z,5.94
2022-11-24T07:07:24.382Z,5.89
2022-11-24T07:07:56.495Z,5.82
2022-11-24T07:08:28.395Z,5.90
2022-11-24T07:09:00.487Z,5.94
2022-11-24T07:09:32.385Z,5.82
2022-11-24T07:10:04.610Z,5.87
2022-11-24T07:10:36.619Z,5.90
2022-11-24T07:11:11.361Z,5.94
2022-11-24T07:11:43.229Z,6.00
2022-11-24T07:12:15.131Z,6.03
2022-11-24T07:12:47.002Z,6.07
2022-11-24T07:13:20.243Z,6.08
2022-11-24T07:13:58.135Z,6.10
2022-11-24T07:14:32.271Z,6.06
2022-11-24T07:15:04.629Z,5.96
2022-11-24T07:15:36.533Z,6.07
2022-11-24T07:16:20.811Z,6.14
2022-11-24T07:16:52.667Z,6.05
2022-11-24T07:17:24.526Z,6.00
2022-11-24T07:17:56.737Z,6.05
2022-11-24T07:18:28.578Z,6.04
2022-11-24T07:19:00.655Z,6.14
2022-11-24T07:19:32.519Z,6.17
2022-11-24T07:20:06.085Z,6.22
2022-11-24T07:20:38.160Z,6.22
2022-11-24T07:21:10.840Z,6.19
2022-11-24T07:21:42.661Z,6.07
2022-11-24T07:22:14.470Z,6.14
2022-11-24T07:22:46.317Z,6.20
2022-11-24T07:23:18.137Z,6.15